createdAt,value
2022-08-08T00:00:50.231Z,99219.47
2022-08-08T00:02:32.850Z,99219.53
2022-08-08T00:04:53.174Z,99219.22
2022-08-08T00:07:21.754Z,99219.84
2022-08-08T00:09:47.896Z,99217.06
2022-08-08T00:12:23.814Z,99215.47
2022-08-08T00:14:59.217Z,99220.31
2022-08-08T00:17:27.322Z,99215.59
2022-08-08T00:20:14.735Z,99214.47
2022-08-08T00:22:41.091Z,99207.00
2022-08-08T00:25:08.333Z,99203.72
2022-08-08T00:27:35.708Z,99199.94
2022-08-08T00:30:03.105Z,99200.00
2022-08-08T00:32:35.502Z,99202.75
2022-08-08T00:35:04.232Z,99204.06
2022-08-08T00:37:47.624Z,99206.00
2022-08-08T00:41:11.467Z,99207.28
2022-08-08T00:43:11.947Z,99204.13
2022-08-08T00:45:46.005Z,99210.88
2022-08-08T00:48:30.284Z,99196.50
2022-08-08T00:50:56.890Z,99191.25
2022-08-08T00:53:24.807Z,99190.88
2022-08-08T00:55:55.632Z,99184.69
2022-08-08T00:58:31.927Z,99195.50
2022-08-08T01:00:58.870Z,99190.09
2022-08-08T01:03:59.989Z,99197.03
2022-08-08T01:06:11.871Z,99199.31
2022-08-08T01:08:38.081Z,99197.47
2022-08-08T01:11:08.530Z,99204.09
2022-08-08T01:13:43.661Z,99201.63
2022-08-08T01:16:12.260Z,99202.19
2022-08-08T01:18:53.843Z,99200.56
2022-08-08T01:21:36.940Z,99200.03
2022-08-08T01:24:13.831Z,99200.31
2022-08-08T01:26:48.170Z,99199.75
2022-08-08T01:29:15.567Z,99212.00
2022-08-08T01:32:14.989Z,99217.06
2022-08-08T01:34:28.777Z,99220.94
2022-08-08T01:36:55.354Z,99204.63
2022-08-08T01:39:24.055Z,99211.00
2022-08-08T01:41:54.306Z,99209.81
2022-08-08T01:44:26.481Z,99209.22
2022-08-08T01:46:52.863Z,99203.81
2022-08-08T01:49:23.330Z,99208.78
2022-08-08T01:52:40.888Z,99205.25
2022-08-08T01:55:25.516Z,99203.03
2022-08-08T01:58:10.825Z,99209.75
2022-08-08T02:00:21.800Z,99211.59
2022-08-08T02:02:49.388Z,99205.44
2022-08-08T02:05:16.045Z,99203.03
2022-08-08T02:07:48.657Z,99203.13
2022-08-08T02:10:29.603Z,99209.56
2022-08-08T02:12:56.479Z,99199.97
2022-08-08T02:15:22.621Z,99206.59
2022-08-08T02:17:50.365Z,99200.81
2022-08-08T02:21:01.899Z,99205.16
2022-08-08T02:23:02.860Z,99203.00
2022-08-08T02:25:43.629Z,99200.63
2022-08-08T02:28:14.742Z,99207.97
2022-08-08T02:30:50.006Z,99200.66
2022-08-08T02:33:24.137Z,99200.78
2022-08-08T02:36:07.880Z,99198.13
2022-08-08T02:38:38.766Z,99202.69
2022-08-08T02:41:17.890Z,99199.28
2022-08-08T02:44:37.085Z,99189.78
2022-08-08T02:46:41.508Z,99192.09
2022-08-08T02:49:10.011Z,99184.63
2022-08-08T02:51:55.190Z,99193.16
2022-08-08T02:54:23.072Z,99192.97
2022-08-08T02:56:53.938Z,99192.22
2022-08-08T02:59:37.129Z,99191.41
2022-08-08T03:02:08.058Z,99193.41
2022-08-08T03:05:03.588Z,99197.03
2022-08-08T03:07:20.535Z,99193.50
2022-08-08T03:09:49.026Z,99192.59
2022-08-08T03:12:15.534Z,99194.94
2022-08-08T03:15:59.561Z,99189.63
2022-08-08T03:17:39.604Z,99203.09
2022-08-08T03:20:08.240Z,99193.50
2022-08-08T03:22:51.042Z,99195.75
2022-08-08T03:25:22.662Z,99197.75
2022-08-08T03:28:00.409Z,99211.44
2022-08-08T03:30:27.200Z,99211.63
2022-08-08T03:32:57.740Z,99212.94
2022-08-08T03:35:27.294Z,99217.09
2022-08-08T03:38:55.673Z,99218.63
2022-08-08T03:40:51.344Z,99219.59
2022-08-08T03:43:20.128Z,99224.19
2022-08-08T03:46:05.005Z,99222.59
2022-08-08T03:49:09.596Z,99225.31
2022-08-08T03:51:19.383Z,99226.94
2022-08-08T03:53:52.809Z,99228.78
2022-08-08T03:56:31.765Z,99237.41
2022-08-08T03:58:58.636Z,99232.06
2022-08-08T04:01:26.121Z,99234.47
2022-08-08T04:04:02.334Z,99242.63
2022-08-08T04:06:29.845Z,99244.63
2022-08-08T04:08:56.533Z,99236.78
2022-08-08T04:11:23.667Z,99245.66
2022-08-08T04:14:03.014Z,99247.28
2022-08-08T04:16:40.132Z,99252.72
2022-08-08T04:19:25.282Z,99253.81
2022-08-08T04:21:51.695Z,99243.88
2022-08-08T04:24:28.133Z,99245.88
2022-08-08T04:26:57.967Z,99245.69
2022-08-08T04:29:24.718Z,99247.00
2022-08-08T04:31:58.325Z,99247.00
2022-08-08T04:34:29.086Z,99245.34
2022-08-08T04:36:58.257Z,99251.00
2022-08-08T04:40:05.763Z,99252.84
2022-08-08T04:42:11.303Z,99251.22
2022-08-08T04:44:41.937Z,99249.22
2022-08-08T04:47:11.941Z,99254.84
2022-08-08T04:49:58.475Z,99258.69
2022-08-08T04:52:25.339Z,99263.50
2022-08-08T04:55:00.372Z,99263.03
2022-08-08T04:57:27.727Z,99252.06
2022-08-08T04:59:54.900Z,99265.34
2022-08-08T05:02:30.694Z,99268.53
2022-08-08T05:04:59.170Z,99270.59
2022-08-08T05:07:25.923Z,99269.56
2022-08-08T05:09:52.057Z,99274.22
2022-08-08T05:12:21.382Z,99275.44
2022-08-08T05:14:55.258Z,99268.56
2022-08-08T05:17:21.610Z,99276.06
2022-08-08T05:20:12.960Z,99281.44
2022-08-08T05:22:34.030Z,99277.03
2022-08-08T05:25:00.301Z,99278.63
2022-08-08T05:27:26.424Z,99270.28
2022-08-08T05:29:59.604Z,99269.91
2022-08-08T05:32:27.262Z,99271.66
2022-08-08T05:34:53.831Z,99278.00
2022-08-08T05:37:19.995Z,99288.13
2022-08-08T05:39:46.210Z,99281.22
2022-08-08T05:42:14.252Z,99286.94
2022-08-08T05:44:40.874Z,99278.44
2022-08-08T05:47:07.005Z,99287.84
2022-08-08T05:49:33.135Z,99279.66
2022-08-08T05:52:04.357Z,99282.47
2022-08-08T05:54:49.733Z,99287.00
2022-08-08T05:57:57.693Z,99281.19
2022-08-08T06:00:22.969Z,99275.25
2022-08-08T06:02:49.984Z,99274.97
2022-08-08T06:05:32.910Z,99284.75
2022-08-08T06:08:09.530Z,99279.03
2022-08-08T06:10:38.605Z,99280.72
2022-08-08T06:13:05.555Z,99271.31
2022-08-08T06:15:51.181Z,99281.94
2022-08-08T06:18:21.185Z,99286.53
2022-08-08T06:20:49.545Z,99293.19
2022-08-08T06:23:18.540Z,99290.44
2022-08-08T06:26:38.774Z,99298.78
2022-08-08T06:28:38.710Z,99295.88
2022-08-08T06:31:05.366Z,99297.63
2022-08-08T06:33:37.354Z,99294.84
2022-08-08T06:36:21.874Z,99291.72
2022-08-08T06:38:51.498Z,99296.31
2022-08-08T06:41:18.137Z,99296.91
2022-08-08T06:43:47.597Z,99296.16
2022-08-08T06:46:23.976Z,99301.41
2022-08-08T06:48:50.394Z,99300.84
2022-08-08T06:51:16.635Z,99305.44
2022-08-08T06:53:51.031Z,99314.41
2022-08-08T06:56:23.128Z,99302.31
2022-08-08T06:58:49.480Z,99307.22
2022-08-08T07:02:17.682Z,99312.84
2022-08-08T07:04:39.823Z,99320.16
2022-08-08T07:06:47.908Z,99319.13
2022-08-08T07:09:15.053Z,99318.59
2022-08-08T07:11:46.297Z,99314.78
2022-08-08T07:14:17.539Z,99330.94
2022-08-08T07:16:53.870Z,99326.25
2022-08-08T07:19:20.573Z,99323.06
2022-08-08T07:21:48.489Z,99321.56
2022-08-08T07:24:14.623Z,99331.91
2022-08-08T07:26:41.286Z,99332.13
2022-08-08T07:29:08.232Z,99336.50
2022-08-08T07:31:38.002Z,99337.66
2022-08-08T07:34:08.645Z,99341.69
2022-08-08T07:36:35.646Z,99346.69
2022-08-08T07:39:03.136Z,99343.00
2022-08-08T07:41:58.907Z,99340.78
2022-08-08T07:44:37.823Z,99339.41
2022-08-08T07:47:02.382Z,99349.97
2022-08-08T07:49:28.535Z,99348.63
2022-08-08T07:51:54.667Z,99353.63
2022-08-08T07:54:26.609Z,99352.78
2022-08-08T07:56:53.230Z,99354.44
2022-08-08T07:59:20.041Z,99355.28
2022-08-08T08:02:34.594Z,99357.03
2022-08-08T08:04:32.433Z,99358.69
2022-08-08T08:07:02.108Z,99362.66
2022-08-08T08:09:28.246Z,99361.25
2022-08-08T08:11:59.194Z,99359.19
2022-08-08T08:14:25.377Z,99358.59
2022-08-08T08:16:51.592Z,99364.81
2022-08-08T08:19:17.806Z,99366.88
2022-08-08T08:21:57.132Z,99369.56
2022-08-08T08:24:30.628Z,99364.44
2022-08-08T08:26:58.605Z,99364.88
2022-08-08T08:29:27.730Z,99371.28
2022-08-08T08:31:57.980Z,99365.47
2022-08-08T08:34:32.181Z,99364.22
2022-08-08T08:36:59.675Z,99364.63
2022-08-08T08:40:00.252Z,99367.50
2022-08-08T08:42:11.982Z,99362.56
2022-08-08T08:44:39.615Z,99370.81
2022-08-08T08:47:08.252Z,99366.25
2022-08-08T08:49:35.099Z,99366.44
2022-08-08T08:52:01.250Z,99364.97
2022-08-08T08:54:27.392Z,99369.94
2022-08-08T08:56:58.780Z,99356.84
2022-08-08T08:59:59.502Z,99371.56
2022-08-08T09:02:11.246Z,99367.38
2022-08-08T09:04:44.523Z,99369.25
2022-08-08T09:07:14.389Z,99371.69
2022-08-08T09:09:47.730Z,99363.88
2022-08-08T09:12:15.016Z,99369.44
2022-08-08T09:14:42.870Z,99367.09
2022-08-08T09:17:17.323Z,99362.06
2022-08-08T09:22:01.644Z,99366.75
2022-08-08T09:22:30.905Z,99367.38
2022-08-08T09:24:58.472Z,99361.06
2022-08-08T09:27:41.957Z,99361.84
2022-08-08T09:30:11.122Z,99372.63
2022-08-08T09:32:40.960Z,99366.88
2022-08-08T09:35:31.879Z,99371.63
2022-08-08T09:38:01.875Z,99361.69
2022-08-08T09:40:43.202Z,99359.75
2022-08-08T09:43:16.635Z,99363.97
2022-08-08T09:45:55.035Z,99363.22
2022-08-08T09:48:35.389Z,99370.00
2022-08-08T09:51:05.248Z,99374.69
2022-08-08T09:54:00.026Z,99362.91
2022-08-08T09:56:24.773Z,99366.28
2022-08-08T09:58:51.383Z,99364.47
2022-08-08T10:01:58.971Z,99357.06
2022-08-08T10:04:04.763Z,99364.41
2022-08-08T10:06:32.379Z,99363.84
2022-08-08T10:08:59.885Z,99354.13
2022-08-08T10:12:26.448Z,99366.03
2022-08-08T10:14:28.415Z,99358.34
2022-08-08T10:16:58.684Z,99368.34
2022-08-08T10:19:24.823Z,99355.28
2022-08-08T10:21:52.989Z,99367.56
2022-08-08T10:24:28.504Z,99359.78
2022-08-08T10:26:59.650Z,99358.66
2022-08-08T10:29:28.161Z,99360.59
2022-08-08T10:32:04.222Z,99359.19
2022-08-08T10:34:30.396Z,99354.91
2022-08-08T10:36:59.932Z,99362.78
2022-08-08T10:39:43.323Z,99377.94
2022-08-08T10:42:15.462Z,99362.31
2022-08-08T10:44:43.266Z,99356.44
2022-08-08T10:47:09.552Z,99365.47
2022-08-08T10:50:01.319Z,99364.81
2022-08-08T10:52:28.317Z,99368.19
2022-08-08T10:54:57.401Z,99360.81
2022-08-08T10:57:41.445Z,99364.44
2022-08-08T11:00:10.398Z,99360.31
2022-08-08T11:02:38.430Z,99356.63
2022-08-08T11:05:14.989Z,99357.97
2022-08-08T11:08:39.050Z,99363.59
2022-08-08T11:10:30.193Z,99363.25
2022-08-08T11:13:18.671Z,99371.63
2022-08-08T11:15:53.128Z,99364.81
2022-08-08T11:18:27.470Z,99365.16
2022-08-08T11:20:56.256Z,99368.47
2022-08-08T11:23:23.888Z,99363.66
2022-08-08T11:25:58.553Z,99360.03
2022-08-08T11:28:25.605Z,99351.78
2022-08-08T11:30:52.814Z,99359.34
2022-08-08T11:33:19.176Z,99353.81
2022-08-08T11:35:45.613Z,99353.72
2022-08-08T11:38:39.411Z,99360.97
2022-08-08T11:40:59.260Z,99344.19
2022-08-08T11:43:25.842Z,99345.75
2022-08-08T11:46:13.991Z,99343.19
2022-08-08T11:48:46.886Z,99347.47
2022-08-08T11:51:37.881Z,99344.47
2022-08-08T11:54:01.947Z,99338.28
2022-08-08T11:56:28.645Z,99354.06
2022-08-08T11:58:55.681Z,99344.09
2022-08-08T12:01:22.181Z,99339.28
2022-08-08T12:03:49.308Z,99335.41
2022-08-08T12:06:15.473Z,99332.28
2022-08-08T12:08:42.404Z,99338.84
2022-08-08T12:11:12.025Z,99335.91
2022-08-08T12:14:03.524Z,99332.06
2022-08-08T12:16:31.873Z,99329.25
2022-08-08T12:19:06.152Z,99335.72
2022-08-08T12:21:59.780Z,99333.72
2022-08-08T12:24:18.451Z,99341.59
2022-08-08T12:26:45.988Z,99340.19
2022-08-08T12:29:16.265Z,99344.19
2022-08-08T12:31:53.758Z,99345.00
2022-08-08T12:34:20.628Z,99334.69
2022-08-08T12:36:59.349Z,99331.84
2022-08-08T12:39:37.094Z,99322.22
2022-08-08T12:42:21.342Z,99330.63
2022-08-08T12:44:48.413Z,99334.56
2022-08-08T12:47:16.613Z,99326.03
2022-08-08T12:49:45.325Z,99324.63
2022-08-08T12:52:14.351Z,99329.56
2022-08-08T12:54:54.599Z,99340.00
2022-08-08T12:57:20.750Z,99325.22
2022-08-08T13:00:04.685Z,99324.16
2022-08-08T13:02:32.828Z,99328.25
2022-08-08T13:04:59.141Z,99329.44
2022-08-08T13:08:03.129Z,99331.06
2022-08-08T13:10:11.509Z,99325.19
2022-08-08T13:12:39.571Z,99325.78
2022-08-08T13:15:07.870Z,99325.31
2022-08-08T13:17:54.257Z,99304.25
2022-08-08T13:20:20.365Z,99323.22
2022-08-08T13:22:46.664Z,99313.41
2022-08-08T13:25:13.646Z,99306.00
2022-08-08T13:27:41.133Z,99292.34
2022-08-08T13:30:07.556Z,99298.53
2022-08-08T13:32:34.121Z,99301.00
2022-08-08T13:35:01.677Z,99313.50
2022-08-08T13:38:04.893Z,99309.72
2022-08-08T13:40:17.601Z,99306.78
2022-08-08T13:42:53.031Z,99308.41
2022-08-08T13:45:19.157Z,99302.75
2022-08-08T13:47:55.780Z,99302.19
2022-08-08T13:50:36.056Z,99303.69
2022-08-08T13:53:25.112Z,99299.75
2022-08-08T13:55:52.311Z,99297.22
2022-08-08T13:58:20.650Z,99304.09
2022-08-08T14:00:47.487Z,99303.91
2022-08-08T14:03:46.979Z,99308.06
2022-08-08T14:06:01.442Z,99308.16
2022-08-08T14:08:30.295Z,99302.31
2022-08-08T14:11:00.802Z,99296.28
2022-08-08T14:13:33.201Z,99311.22
2022-08-08T14:16:00.456Z,99303.00
2022-08-08T14:18:35.575Z,99297.78
2022-08-08T14:21:20.400Z,99302.41
2022-08-08T14:24:06.869Z,99305.81
2022-08-08T14:26:33.620Z,99298.63
2022-08-08T14:28:59.824Z,99301.72
2022-08-08T14:32:06.079Z,99302.16
2022-08-08T14:34:19.436Z,99304.38
2022-08-08T14:36:53.356Z,99291.78
2022-08-08T14:39:20.854Z,99296.94
2022-08-08T14:41:54.726Z,99299.06
2022-08-08T14:44:24.887Z,99291.84
2022-08-08T14:46:56.547Z,99286.19
2022-08-08T14:49:33.599Z,99283.38
2022-08-08T14:52:04.125Z,99301.50
2022-08-08T14:54:31.851Z,99291.63
2022-08-08T14:56:58.363Z,99289.16
2022-08-08T14:59:44.496Z,99292.50
2022-08-08T15:02:10.813Z,99294.09
2022-08-08T15:04:41.707Z,99287.56
2022-08-08T15:07:08.085Z,99291.25
2022-08-08T15:09:49.329Z,99284.44
2022-08-08T15:12:22.141Z,99298.16
2022-08-08T15:14:53.693Z,99291.81
2022-08-08T15:17:19.837Z,99294.56
2022-08-08T15:19:46.158Z,99295.22
2022-08-08T15:22:12.326Z,99303.47
2022-08-08T15:24:44.130Z,99287.06
2022-08-08T15:27:57.861Z,99290.06
2022-08-08T15:30:02.394Z,99289.19
2022-08-08T15:32:31.449Z,99289.56
2022-08-08T15:34:57.920Z,99293.94
2022-08-08T15:37:26.195Z,99279.75
2022-08-08T15:39:52.379Z,99280.84
2022-08-08T15:42:33.084Z,99274.53
2022-08-08T15:44:59.524Z,99281.81
2022-08-08T15:47:25.662Z,99277.06
2022-08-08T15:49:51.788Z,99287.50
2022-08-08T15:52:20.741Z,99289.78
2022-08-08T15:54:51.418Z,99295.56
2022-08-08T15:57:18.455Z,99292.03
2022-08-08T16:00:25.540Z,99285.09
2022-08-08T16:02:31.751Z,99288.78
2022-08-08T16:04:58.814Z,99297.13
2022-08-08T16:07:25.189Z,99297.19
2022-08-08T16:13:02.012Z,99271.00
2022-08-08T16:13:11.481Z,99281.13
2022-08-08T16:15:58.146Z,99273.59
2022-08-08T16:18:24.262Z,99274.81
2022-08-08T16:20:51.842Z,99277.72
2022-08-08T16:23:17.972Z,99279.53
2022-08-08T16:25:54.614Z,99270.22
2022-08-08T16:28:35.009Z,99271.81
2022-08-08T16:31:03.187Z,99273.44
2022-08-08T16:33:38.893Z,99280.22
2022-08-08T16:36:08.508Z,99268.34
2022-08-08T16:38:35.514Z,99272.03
2022-08-08T16:41:01.870Z,99272.00
2022-08-08T16:43:28.233Z,99281.56
2022-08-08T16:46:36.447Z,99275.44
2022-08-08T16:48:54.566Z,99283.13
2022-08-08T16:55:01.405Z,99273.41
2022-08-08T16:55:04.913Z,99283.09
2022-08-08T16:57:01.902Z,99267.28
2022-08-08T16:59:52.447Z,99271.50
2022-08-08T17:02:32.878Z,99272.63
2022-08-08T17:05:04.990Z,99267.13
2022-08-08T17:07:31.193Z,99271.97
2022-08-08T17:09:57.330Z,99271.94
2022-08-08T17:12:28.432Z,99268.28
2022-08-08T17:14:54.843Z,99283.63
2022-08-08T17:17:41.626Z,99267.88
2022-08-08T17:20:07.352Z,99276.19
2022-08-08T17:22:41.981Z,99275.25
2022-08-08T17:25:08.810Z,99268.25
2022-08-08T17:27:46.543Z,99283.19
2022-08-08T17:30:23.429Z,99284.00
2022-08-08T17:34:36.985Z,99279.69
2022-08-08T17:35:54.624Z,99279.84
2022-08-08T17:38:30.971Z,99290.00
2022-08-08T17:40:57.315Z,99284.63
2022-08-08T17:43:23.456Z,99294.56
2022-08-08T17:45:49.830Z,99304.91
2022-08-08T17:48:29.141Z,99299.97
2022-08-08T17:50:55.702Z,99301.78
2022-08-08T17:53:31.184Z,99301.50
2022-08-08T17:56:08.528Z,99300.22
2022-08-08T17:58:34.773Z,99298.50
2022-08-08T18:01:00.928Z,99304.22
2022-08-08T18:03:27.114Z,99298.06
2022-08-08T18:05:53.286Z,99307.78
2022-08-08T18:08:38.005Z,99316.22
2022-08-08T18:11:05.599Z,99316.97
2022-08-08T18:13:35.062Z,99316.75
2022-08-08T18:16:07.754Z,99308.25
2022-08-08T18:18:37.301Z,99308.22
2022-08-08T18:21:10.677Z,99311.94
2022-08-08T18:23:55.803Z,99314.72
2022-08-08T18:26:22.438Z,99324.66
2022-08-08T18:28:54.350Z,99313.94
2022-08-08T18:31:21.402Z,99318.94
2022-08-08T18:34:11.125Z,99317.78
2022-08-08T18:36:33.689Z,99322.69
2022-08-08T18:39:02.226Z,99319.53
2022-08-08T18:41:51.095Z,99319.66
2022-08-08T18:44:14.756Z,99323.78
2022-08-08T18:46:54.754Z,99322.44
2022-08-08T18:49:24.383Z,99320.28
2022-08-08T18:51:53.978Z,99325.31
2022-08-08T18:54:22.410Z,99317.69
2022-08-08T18:56:50.725Z,99323.44
2022-08-08T18:59:16.849Z,99331.66
2022-08-08T19:02:26.492Z,99339.66
2022-08-08T19:04:29.380Z,99351.94
2022-08-08T19:06:55.903Z,99358.19
2022-08-08T19:09:23.182Z,99351.16
2022-08-08T19:12:12.788Z,99357.75
2022-08-08T19:14:42.878Z,99367.47
2022-08-08T19:17:09.045Z,99381.09
2022-08-08T19:19:43.851Z,99379.81
2022-08-08T19:22:10.432Z,99377.81
2022-08-08T19:24:54.342Z,99380.41
2022-08-08T19:27:52.856Z,99389.44
2022-08-08T19:30:18.016Z,99390.28
2022-08-08T19:32:44.346Z,99398.16
2022-08-08T19:35:11.396Z,99398.78
2022-08-08T19:37:43.211Z,99399.81
2022-08-08T19:40:16.020Z,99400.81
2022-08-08T19:42:42.643Z,99401.31
2022-08-08T19:45:08.813Z,99408.16
2022-08-08T19:47:36.489Z,99410.94
2022-08-08T19:50:06.582Z,99406.94
2022-08-08T19:52:36.993Z,99409.06
2022-08-08T19:55:05.092Z,99405.78
2022-08-08T19:57:31.593Z,99408.69
2022-08-08T19:59:57.930Z,99412.09
2022-08-08T20:02:24.186Z,99415.16
2022-08-08T20:04:54.652Z,99412.50
2022-08-08T20:08:29.240Z,99411.03
2022-08-08T20:10:08.583Z,99419.03
2022-08-08T20:12:35.510Z,99416.75
2022-08-08T20:15:02.001Z,99418.50
2022-08-08T20:17:41.345Z,99414.00
2022-08-08T20:20:07.859Z,99420.91
2022-08-08T20:22:35.814Z,99416.00
2022-08-08T20:25:01.983Z,99422.81
2022-08-08T20:27:43.722Z,99416.03
2022-08-08T20:30:38.989Z,99419.50
2022-08-08T20:33:00.417Z,99421.41
2022-08-08T20:35:32.885Z,99417.47
2022-08-08T20:38:13.082Z,99425.44
2022-08-08T20:40:39.485Z,99426.88
2022-08-08T20:43:16.160Z,99429.59
2022-08-08T20:45:55.328Z,99423.38
2022-08-08T20:48:29.466Z,99418.88
2022-08-08T20:50:55.652Z,99424.00
2022-08-08T20:54:00.691Z,99425.16
2022-08-08T20:56:07.921Z,99430.53
2022-08-08T20:58:34.071Z,99421.91
2022-08-08T21:01:01.083Z,99423.63
2022-08-08T21:03:29.707Z,99429.47
2022-08-08T21:05:59.102Z,99431.91
2022-08-08T21:08:37.212Z,99433.97
2022-08-08T21:11:11.965Z,99437.56
2022-08-08T21:13:41.048Z,99436.94
2022-08-08T21:16:20.899Z,99435.94
2022-08-08T21:18:53.671Z,99434.72
2022-08-08T21:21:39.320Z,99433.91
2022-08-08T21:24:13.987Z,99434.75
2022-08-08T21:26:52.280Z,99436.63
2022-08-08T21:29:20.029Z,99425.41
2022-08-08T21:31:57.784Z,99428.53
2022-08-08T21:34:25.501Z,99431.66
2022-08-08T21:36:56.262Z,99437.06
2022-08-08T21:39:41.609Z,99433.94
2022-08-08T21:42:10.920Z,99426.09
2022-08-08T21:44:37.053Z,99426.28
2022-08-08T21:48:04.479Z,99424.84
2022-08-08T21:49:49.910Z,99434.59
2022-08-08T21:54:33.836Z,99428.16
2022-08-08T21:55:04.229Z,99436.44
2022-08-08T21:58:05.735Z,99433.94
2022-08-08T22:00:33.717Z,99436.22
2022-08-08T22:03:07.117Z,99441.00
2022-08-08T22:05:37.544Z,99444.72
2022-08-08T22:08:07.511Z,99437.09
2022-08-08T22:10:33.842Z,99446.78
2022-08-08T22:13:18.848Z,99439.53
2022-08-08T22:15:59.769Z,99444.88
2022-08-08T22:18:27.005Z,99452.75
2022-08-08T22:20:53.160Z,99454.34
2022-08-08T22:23:19.316Z,99452.53
2022-08-08T22:26:28.212Z,99447.31
2022-08-08T22:29:14.174Z,99455.59
2022-08-08T22:31:17.940Z,99462.00
2022-08-08T22:34:12.285Z,99457.06
2022-08-08T22:36:32.227Z,99460.13
2022-08-08T22:39:00.797Z,99466.34
2022-08-08T22:41:32.857Z,99470.22
2022-08-08T22:44:05.610Z,99467.53
2022-08-08T22:46:32.355Z,99460.31
2022-08-08T22:48:58.487Z,99459.91
2022-08-08T22:51:29.154Z,99469.41
2022-08-08T22:54:32.897Z,99464.00
2022-08-08T22:56:41.494Z,99462.97
2022-08-08T22:59:07.658Z,99473.69
2022-08-08T23:02:01.959Z,99470.81
2022-08-08T23:04:32.238Z,99463.94
2022-08-08T23:07:02.680Z,99463.72
2022-08-08T23:09:30.694Z,99468.06
2022-08-08T23:12:29.044Z,99467.41
2022-08-08T23:14:56.081Z,99467.81
2022-08-08T23:17:30.075Z,99464.94
2022-08-08T23:19:56.409Z,99459.13
2022-08-08T23:22:22.573Z,99463.66
2022-08-08T23:24:48.700Z,99456.63
2022-08-08T23:27:37.892Z,99463.84
2022-08-08T23:30:01.776Z,99464.03
2022-08-08T23:32:27.939Z,99469.78
2022-08-08T23:34:58.883Z,99455.13
2022-08-08T23:37:25.623Z,99461.03
2022-08-08T23:40:11.795Z,99461.13
2022-08-08T23:42:38.398Z,99460.38
2022-08-08T23:45:04.528Z,99462.66
2022-08-08T23:49:07.966Z,99458.94
2022-08-08T23:50:30.193Z,99457.47
2022-08-08T23:52:57.349Z,99464.22
2022-08-08T23:55:23.468Z,99462.81
2022-08-08T23:57:52.950Z,99454.47
